Time;durP1;ratioP1;P1;durP2;ratioP2;P2;SDS_P1;SDS_P2;PMS_P1;PMS_P2;Temp;Humidity;BMP_temperature;BMP_pressure;BME280_temperature;BME280_humidity;BME280_pressure;Samples;Min_cycle;Max_cycle;Signal;HPM_P1;HPM_P2
2022/05/22 00:01:30;;;;;;;10.93;3.13;;;;;;;;;;5031715;28;20734;-61
2022/05/22 00:03:55;;;;;;;13.45;4.28;;;;;;;;;;5031125;28;20235;-61
2022/05/22 00:06:20;;;;;;;8.73;3.83;;;;;;;;;;5030058;28;20211;-61
2022/05/22 00:08:46;;;;;;;9.88;3.83;;;;;;;;;;5031494;28;20419;-61
2022/05/22 00:11:11;;;;;;;10.85;4.13;;;;;;;;;;5031270;28;20273;-61
2022/05/22 00:13:36;;;;;;;13.52;4.25;;;;;;;;;;5030302;28;20442;-61
2022/05/22 00:18:45;;;;;;;10.25;4.15;;;;;;;;;;5030412;28;20745;-61
2022/05/22 00:21:10;;;;;;;13.73;4.47;;;;;;;;;;5030345;28;20216;-61
2022/05/22 00:23:36;;;;;;;11.63;4.05;;;;;;;;;;5031176;28;20298;-61
2022/05/22 00:26:01;;;;;;;10.32;4.50;;;;;;;;;;5028608;28;20645;-61
2022/05/22 00:28:26;;;;;;;9.90;4.28;;;;;;;;;;5050877;28;20207;-61
2022/05/22 00:30:52;;;;;;;12.43;4.82;;;;;;;;;;5051425;28;20671;-61
2022/05/22 00:33:17;;;;;;;11.95;4.53;;;;;;;;;;5049799;28;20226;-61
2022/05/22 00:35:42;;;;;;;12.75;4.63;;;;;;;;;;5050438;28;20219;-61
2022/05/22 00:38:07;;;;;;;11.55;4.90;;;;;;;;;;5044432;28;20227;-62
2022/05/22 00:40:33;;;;;;;11.43;4.72;;;;;;;;;;5051922;28;20245;-61
2022/05/22 00:42:58;;;;;;;13.60;4.70;;;;;;;;;;5031781;28;20207;-61
2022/05/22 00:45:23;;;;;;;12.40;4.72;;;;;;;;;;5034281;28;20204;-61
2022/05/22 00:47:51;;;;;;;11.57;5.10;;;;;;;;;;5034178;28;20605;-61
2022/05/22 00:50:16;;;;;;;12.35;5.35;;;;;;;;;;5034182;28;20295;-61
2022/05/22 00:52:43;;;;;;;11.32;4.78;;;;;;;;;;5034565;28;20299;-61
2022/05/22 00:55:09;;;;;;;9.82;4.38;;;;;;;;;;5033293;28;20683;-61
2022/05/22 00:57:35;;;;;;;10.13;4.90;;;;;;;;;;5034458;28;20319;-61
2022/05/22 01:00:04;;;;;;;10.85;4.57;;;;;;;;;;5032695;28;20212;-61
2022/05/22 01:03:26;;;;;;;14.57;4.88;;;;;;;;;;5018669;28;20619;-61
2022/05/22 01:05:14;;;;;;;11.88;5.13;;;;;;;;;;5017909;28;20224;-61
2022/05/22 01:07:40;;;;;;;11.25;5.57;;;;;;;;;;5053953;28;20211;-61
2022/05/22 01:10:05;;;;;;;12.02;5.50;;;;;;;;;;5052826;28;20874;-60
2022/05/22 01:12:30;;;;;;;14.95;5.63;;;;;;;;;;5035740;28;20239;-61
2022/05/22 01:14:56;;;;;;;11.02;5.13;;;;;;;;;;5054103;28;20218;-61
2022/05/22 01:17:21;;;;;;;13.52;5.45;;;;;;;;;;5052747;28;20223;-61
2022/05/22 01:19:53;;;;;;;15.45;5.15;;;;;;;;;;5054032;28;20207;-61
2022/05/22 01:22:19;;;;;;;12.13;5.43;;;;;;;;;;5034660;28;20218;-61
2022/05/22 01:24:44;;;;;;;12.20;5.20;;;;;;;;;;5055521;28;20585;-61
2022/05/22 01:27:10;;;;;;;9.60;4.57;;;;;;;;;;5053338;28;20239;-61
2022/05/22 01:29:35;;;;;;;10.38;4.72;;;;;;;;;;5053464;28;20260;-61
2022/05/22 01:32:00;;;;;;;11.30;4.68;;;;;;;;;;5053415;28;20745;-61
2022/05/22 01:34:26;;;;;;;12.48;5.20;;;;;;;;;;5053592;28;20279;-61
2022/05/22 01:36:51;;;;;;;8.82;4.90;;;;;;;;;;5028874;28;20618;-61
2022/05/22 01:39:16;;;;;;;11.85;4.80;;;;;;;;;;5052453;28;20614;-61
2022/05/22 01:41:41;;;;;;;13.65;5.45;;;;;;;;;;5053712;28;20219;-61
2022/05/22 01:44:07;;;;;;;11.48;5.68;;;;;;;;;;5052798;28;20234;-61
2022/05/22 01:46:32;;;;;;;12.38;5.28;;;;;;;;;;5053573;28;20298;-61
2022/05/22 01:48:57;;;;;;;11.00;5.25;;;;;;;;;;5052932;28;20299;-61
2022/05/22 01:51:24;;;;;;;11.77;5.28;;;;;;;;;;5034431;28;20221;-61
2022/05/22 01:53:49;;;;;;;10.23;5.30;;;;;;;;;;5036683;28;20606;-61
2022/05/22 01:56:14;;;;;;;12.50;5.22;;;;;;;;;;5052433;28;20230;-61
2022/05/22 01:58:39;;;;;;;12.60;5.07;;;;;;;;;;5052605;28;20238;-61
2022/05/22 02:01:06;;;;;;;12.13;5.20;;;;;;;;;;5052988;28;20254;-61
2022/05/22 02:03:32;;;;;;;10.88;5.25;;;;;;;;;;5052804;28;20227;-61
2022/05/22 02:05:57;;;;;;;13.43;5.10;;;;;;;;;;5052223;28;20285;-61
2022/05/22 02:08:22;;;;;;;12.18;4.80;;;;;;;;;;5052194;28;20219;-61
2022/05/22 02:10:49;;;;;;;10.32;4.90;;;;;;;;;;5053074;28;20223;-61
2022/05/22 02:13:18;;;;;;;11.13;5.05;;;;;;;;;;5051320;28;20253;-61
2022/05/22 02:15:44;;;;;;;11.38;4.22;;;;;;;;;;5035786;28;20246;-61
2022/05/22 02:18:09;;;;;;;10.40;4.43;;;;;;;;;;5052580;28;20215;-61
2022/05/22 02:20:35;;;;;;;11.85;4.45;;;;;;;;;;5052194;28;20225;-61
2022/05/22 02:23:00;;;;;;;11.27;4.57;;;;;;;;;;5052035;28;20746;-61
2022/05/22 02:25:27;;;;;;;11.57;4.95;;;;;;;;;;5051273;28;20219;-61
2022/05/22 02:27:52;;;;;;;10.23;4.50;;;;;;;;;;5052547;28;20527;-61
2022/05/22 02:30:19;;;;;;;9.80;4.97;;;;;;;;;;5052384;28;20579;-61
2022/05/22 02:32:44;;;;;;;9.15;4.90;;;;;;;;;;5051762;28;20586;-61
2022/05/22 02:35:10;;;;;;;10.50;4.88;;;;;;;;;;5052048;28;20225;-61
2022/05/22 02:37:42;;;;;;;9.18;4.63;;;;;;;;;;5052199;28;20223;-61
2022/05/22 02:40:07;;;;;;;8.75;4.53;;;;;;;;;;5051059;28;20252;-61
2022/05/22 02:42:33;;;;;;;12.02;4.72;;;;;;;;;;5052378;28;20310;-61
2022/05/22 02:44:58;;;;;;;10.75;4.43;;;;;;;;;;5054759;28;20238;-61
2022/05/22 02:47:23;;;;;;;10.80;5.05;;;;;;;;;;5051299;28;20210;-61
2022/05/22 02:49:48;;;;;;;12.23;4.60;;;;;;;;;;5052406;28;20216;-61
2022/05/22 02:52:14;;;;;;;11.30;4.65;;;;;;;;;;5051712;28;20298;-61
2022/05/22 02:54:39;;;;;;;13.13;4.40;;;;;;;;;;5051184;28;20226;-61
2022/05/22 02:57:04;;;;;;;10.32;4.20;;;;;;;;;;5051488;28;20640;-61
2022/05/22 02:59:32;;;;;;;9.32;4.30;;;;;;;;;;5031971;28;20306;-61
2022/05/22 03:01:57;;;;;;;12.77;4.28;;;;;;;;;;5031029;28;20226;-60
2022/05/22 03:04:23;;;;;;;12.13;4.28;;;;;;;;;;5047885;28;20577;-61
2022/05/22 03:06:48;;;;;;;9.65;4.18;;;;;;;;;;5051721;28;20737;-61
2022/05/22 03:09:14;;;;;;;9.93;4.30;;;;;;;;;;5050352;28;20211;-61
2022/05/22 03:11:39;;;;;;;9.73;4.05;;;;;;;;;;5051894;28;20586;-61
2022/05/22 03:14:05;;;;;;;9.57;4.28;;;;;;;;;;5051492;28;20675;-61
2022/05/22 03:16:30;;;;;;;8.93;3.97;;;;;;;;;;5051159;28;20682;-61
2022/05/22 03:18:55;;;;;;;12.05;4.18;;;;;;;;;;5051813;28;20203;-61
2022/05/22 03:21:21;;;;;;;8.23;4.10;;;;;;;;;;5051334;28;20666;-61
2022/05/22 03:23:46;;;;;;;8.88;4.38;;;;;;;;;;5054592;28;20226;-61
2022/05/22 03:26:11;;;;;;;12.07;4.10;;;;;;;;;;5050746;28;20211;-61
2022/05/22 03:28:37;;;;;;;10.38;4.35;;;;;;;;;;5051225;28;20678;-61
2022/05/22 03:31:02;;;;;;;11.35;4.45;;;;;;;;;;5051196;28;20207;-61
2022/05/22 03:33:27;;;;;;;12.68;3.70;;;;;;;;;;5052838;28;20219;-61
2022/05/22 03:35:53;;;;;;;10.10;4.30;;;;;;;;;;5050523;28;20231;-61
2022/05/22 03:38:18;;;;;;;11.00;3.75;;;;;;;;;;5039840;28;20223;-61
2022/05/22 03:40:50;;;;;;;10.98;4.10;;;;;;;;;;5045355;28;20211;-61
2022/05/22 03:43:16;;;;;;;11.13;4.00;;;;;;;;;;5049885;28;20211;-61
2022/05/22 03:45:42;;;;;;;9.82;3.92;;;;;;;;;;5051605;28;20317;-61
2022/05/22 03:48:07;;;;;;;10.93;3.85;;;;;;;;;;5051084;28;20724;-60
2022/05/22 03:50:33;;;;;;;10.20;3.88;;;;;;;;;;5050648;28;20218;-61
2022/05/22 03:52:58;;;;;;;11.00;3.90;;;;;;;;;;5048662;28;20223;-61
2022/05/22 03:55:23;;;;;;;12.48;4.13;;;;;;;;;;5025431;28;20354;-61
2022/05/22 03:57:48;;;;;;;9.52;3.60;;;;;;;;;;5030748;28;20243;-61
2022/05/22 04:00:14;;;;;;;11.93;4.13;;;;;;;;;;5024650;28;20220;-61
2022/05/22 04:02:40;;;;;;;11.88;3.92;;;;;;;;;;5003461;28;20315;-61
2022/05/22 04:05:11;;;;;;;10.77;3.72;;;;;;;;;;5002786;28;20243;-61
2022/05/22 04:07:37;;;;;;;13.82;3.90;;;;;;;;;;5003888;28;20208;-61
2022/05/22 04:10:03;;;;;;;8.57;3.45;;;;;;;;;;4994623;28;20216;-61
2022/05/22 04:12:28;;;;;;;10.60;3.80;;;;;;;;;;4995578;28;20224;-61
2022/05/22 04:14:54;;;;;;;7.15;2.97;;;;;;;;;;5001501;28;20240;-61
2022/05/22 04:17:19;;;;;;;11.23;3.28;;;;;;;;;;5006688;28;20232;-61
2022/05/22 04:19:44;;;;;;;9.98;2.97;;;;;;;;;;5005906;28;20287;-61
2022/05/22 04:22:10;;;;;;;7.63;3.13;;;;;;;;;;5005714;28;20318;-61
2022/05/22 04:27:19;;;;;;;9.15;2.92;;;;;;;;;;5006098;28;20584;-61
2022/05/22 04:29:44;;;;;;;8.75;3.28;;;;;;;;;;5005755;28;20676;-61
2022/05/22 04:32:10;;;;;;;5.75;2.53;;;;;;;;;;4998462;28;20299;-61
2022/05/22 04:34:35;;;;;;;7.47;2.70;;;;;;;;;;4998887;28;20258;-61
2022/05/22 04:37:00;;;;;;;7.40;2.58;;;;;;;;;;4998845;28;20228;-61
2022/05/22 04:39:25;;;;;;;7.05;2.95;;;;;;;;;;5028283;28;20301;-61
2022/05/22 04:41:51;;;;;;;8.40;2.70;;;;;;;;;;5045180;28;20211;-61
2022/05/22 04:44:16;;;;;;;9.70;2.70;;;;;;;;;;5031458;28;20230;-61
2022/05/22 04:46:41;;;;;;;7.63;2.33;;;;;;;;;;5024990;28;20258;-61
2022/05/22 04:49:07;;;;;;;7.40;2.17;;;;;;;;;;5025076;28;20236;-61
2022/05/22 04:51:32;;;;;;;10.30;2.35;;;;;;;;;;5025733;28;20255;-61
2022/05/22 04:53:57;;;;;;;8.02;2.45;;;;;;;;;;5020999;28;20220;-61
2022/05/22 04:56:22;;;;;;;8.55;2.40;;;;;;;;;;5022188;28;20513;-61
2022/05/22 04:58:48;;;;;;;10.45;2.30;;;;;;;;;;5018053;28;20595;-61
2022/05/22 05:01:13;;;;;;;9.38;2.80;;;;;;;;;;5023556;28;20247;-61
2022/05/22 05:03:39;;;;;;;10.13;2.30;;;;;;;;;;5045130;28;20231;-61
2022/05/22 05:06:04;;;;;;;11.30;2.55;;;;;;;;;;5053567;28;20218;-61
2022/05/22 05:08:30;;;;;;;10.45;2.15;;;;;;;;;;5052870;28;20696;-61
2022/05/22 05:10:55;;;;;;;7.28;2.33;;;;;;;;;;5053882;28;20210;-61
2022/05/22 05:13:21;;;;;;;8.57;2.80;;;;;;;;;;5053385;28;20233;-61
2022/05/22 05:15:55;;;;;;;7.35;2.38;;;;;;;;;;5053448;28;20223;-61
2022/05/22 05:18:22;;;;;;;11.70;2.47;;;;;;;;;;5035684;28;20238;-61
2022/05/22 05:20:47;;;;;;;8.35;2.53;;;;;;;;;;5053905;28;20211;-61
2022/05/22 05:23:13;;;;;;;9.00;2.70;;;;;;;;;;5035477;28;20228;-61
2022/05/22 05:25:38;;;;;;;10.32;2.80;;;;;;;;;;5053679;28;20295;-61
2022/05/22 05:28:03;;;;;;;12.65;2.67;;;;;;;;;;5053600;28;20253;-61
2022/05/22 05:30:29;;;;;;;8.43;2.90;;;;;;;;;;5053412;28;20215;-61
2022/05/22 05:32:55;;;;;;;7.90;3.03;;;;;;;;;;5053823;28;20211;-61
2022/05/22 05:35:20;;;;;;;10.50;3.17;;;;;;;;;;5052058;28;20607;-61
2022/05/22 05:37:46;;;;;;;10.13;4.47;;;;;;;;;;5051941;28;20219;-61
2022/05/22 05:40:12;;;;;;;9.90;5.20;;;;;;;;;;5052921;28;20227;-61
2022/05/22 05:42:37;;;;;;;11.20;5.38;;;;;;;;;;5052999;28;20306;-61
2022/05/22 05:45:03;;;;;;;12.82;5.65;;;;;;;;;;5053082;28;20215;-61
2022/05/22 05:47:28;;;;;;;15.13;6.20;;;;;;;;;;5053486;28;20230;-72
2022/05/22 05:49:54;;;;;;;13.02;6.07;;;;;;;;;;5052653;28;20242;-72
2022/05/22 05:52:19;;;;;;;12.18;6.20;;;;;;;;;;5052971;28;20273;-77
2022/05/22 05:54:44;;;;;;;12.30;6.17;;;;;;;;;;5051802;28;21048;-73
2022/05/22 05:57:13;;;;;;;10.95;5.93;;;;;;;;;;5052059;28;20230;-73
2022/05/22 05:59:39;;;;;;;10.48;5.47;;;;;;;;;;5053499;28;20264;-71
2022/05/22 06:02:04;;;;;;;13.45;5.65;;;;;;;;;;5048817;28;20199;-70
2022/05/22 06:04:29;;;;;;;11.90;5.55;;;;;;;;;;5049016;28;20227;-72
2022/05/22 06:06:55;;;;;;;12.05;5.68;;;;;;;;;;5035533;28;20588;-72
2022/05/22 06:09:20;;;;;;;11.65;5.68;;;;;;;;;;5038869;28;20569;-70
2022/05/22 06:11:45;;;;;;;12.25;5.60;;;;;;;;;;5032612;28;20679;-72
2022/05/22 06:14:10;;;;;;;11.13;5.20;;;;;;;;;;5038976;28;20298;-73
2022/05/22 06:16:36;;;;;;;14.27;4.55;;;;;;;;;;5052795;28;20220;-70
2022/05/22 06:19:01;;;;;;;9.35;4.43;;;;;;;;;;5051490;28;20258;-67
2022/05/22 06:21:26;;;;;;;10.75;5.20;;;;;;;;;;5052687;28;20207;-70
2022/05/22 06:23:51;;;;;;;9.52;4.82;;;;;;;;;;5052592;28;20234;-69
2022/05/22 06:26:18;;;;;;;10.07;4.57;;;;;;;;;;5050907;28;20670;-67
2022/05/22 06:28:43;;;;;;;9.77;4.40;;;;;;;;;;5049164;28;20210;-72
2022/05/22 06:31:09;;;;;;;10.90;4.32;;;;;;;;;;5044362;28;20199;-69
2022/05/22 06:33:34;;;;;;;12.35;4.93;;;;;;;;;;5035642;28;20218;-71
2022/05/22 06:36:00;;;;;;;13.23;5.20;;;;;;;;;;5048160;28;20230;-70
2022/05/22 06:41:09;;;;;;;9.90;4.60;;;;;;;;;;5052292;28;20364;-76
2022/05/22 06:43:34;;;;;;;8.82;3.80;;;;;;;;;;5052480;28;20294;-74
2022/05/22 06:46:00;;;;;;;8.68;3.88;;;;;;;;;;5051306;28;20594;-68
2022/05/22 06:48:25;;;;;;;11.98;4.32;;;;;;;;;;5035143;28;20247;-73
2022/05/22 06:50:50;;;;;;;7.72;3.63;;;;;;;;;;5052037;28;20688;-68
2022/05/22 06:53:16;;;;;;;10.30;4.60;;;;;;;;;;5050952;28;20718;-61
2022/05/22 06:55:41;;;;;;;10.32;4.00;;;;;;;;;;5051992;28;20222;-61
2022/05/22 06:58:06;;;;;;;7.30;3.88;;;;;;;;;;5051722;28;20219;-61
2022/05/22 07:00:32;;;;;;;10.23;3.67;;;;;;;;;;5051345;28;20247;-61
2022/05/22 07:02:57;;;;;;;10.57;3.40;;;;;;;;;;5051881;28;20226;-64
2022/05/22 07:05:22;;;;;;;7.20;3.38;;;;;;;;;;5051026;28;20284;-64
2022/05/22 07:07:48;;;;;;;10.98;3.38;;;;;;;;;;5050934;28;20219;-64
2022/05/22 07:10:13;;;;;;;8.55;3.10;;;;;;;;;;5051796;28;20214;-62
2022/05/22 07:12:39;;;;;;;8.65;3.33;;;;;;;;;;5049979;28;20211;-62
2022/05/22 07:15:04;;;;;;;13.20;3.67;;;;;;;;;;5040288;28;20577;-62
2022/05/22 07:17:30;;;;;;;8.20;3.13;;;;;;;;;;5051533;28;20272;-62
2022/05/22 07:19:55;;;;;;;7.78;3.20;;;;;;;;;;5051462;28;20227;-62
2022/05/22 07:22:20;;;;;;;8.85;3.20;;;;;;;;;;5050565;28;20254;-62
2022/05/22 07:24:46;;;;;;;11.23;3.20;;;;;;;;;;5048709;28;20307;-62
2022/05/22 07:27:11;;;;;;;11.57;3.33;;;;;;;;;;5028412;28;20212;-63
2022/05/22 07:29:36;;;;;;;10.10;3.75;;;;;;;;;;5030872;28;20619;-62
2022/05/22 07:32:03;;;;;;;8.32;3.50;;;;;;;;;;5031262;28;20204;-64
2022/05/22 07:34:28;;;;;;;10.32;3.67;;;;;;;;;;5031428;28;20216;-63
2022/05/22 07:36:55;;;;;;;10.75;3.55;;;;;;;;;;5034466;28;20219;-64
2022/05/22 07:39:20;;;;;;;11.10;3.55;;;;;;;;;;5030934;28;20243;-62
2022/05/22 07:41:45;;;;;;;10.98;3.50;;;;;;;;;;5031611;28;20208;-63
2022/05/22 07:44:11;;;;;;;10.05;3.80;;;;;;;;;;5021718;28;20209;-62
2022/05/22 07:46:36;;;;;;;9.27;2.95;;;;;;;;;;5029947;28;20345;-61
2022/05/22 07:49:01;;;;;;;8.85;3.00;;;;;;;;;;5030214;28;20222;-62
2022/05/22 07:51:26;;;;;;;7.95;2.50;;;;;;;;;;5031510;28;20298;-62
2022/05/22 07:53:52;;;;;;;10.27;2.60;;;;;;;;;;5031428;28;20212;-61
2022/05/22 07:56:21;;;;;;;9.15;2.97;;;;;;;;;;5028904;28;20239;-62
2022/05/22 07:58:47;;;;;;;10.13;2.83;;;;;;;;;;5031352;28;20258;-61
2022/05/22 08:01:13;;;;;;;8.10;2.67;;;;;;;;;;5030893;28;20667;-61
2022/05/22 08:03:38;;;;;;;8.05;2.45;;;;;;;;;;5037574;28;20227;-62
2022/05/22 08:06:03;;;;;;;11.43;2.63;;;;;;;;;;5049664;28;20225;-62
2022/05/22 08:08:29;;;;;;;8.52;2.40;;;;;;;;;;5050992;28;20674;-62
2022/05/22 08:10:56;;;;;;;8.63;2.70;;;;;;;;;;5050333;28;20211;-61
2022/05/22 08:13:21;;;;;;;8.07;2.20;;;;;;;;;;5042881;28;20655;-62
2022/05/22 08:15:46;;;;;;;11.20;2.17;;;;;;;;;;5035412;28;20222;-62
2022/05/22 08:18:12;;;;;;;9.35;2.10;;;;;;;;;;5048906;28;20272;-61
2022/05/22 08:20:38;;;;;;;9.82;2.00;;;;;;;;;;5050778;28;20305;-61
2022/05/22 08:23:05;;;;;;;8.20;2.00;;;;;;;;;;5050342;28;20219;-61
2022/05/22 08:25:30;;;;;;;7.55;2.10;;;;;;;;;;5049928;28;20230;-61
2022/05/22 08:27:55;;;;;;;5.75;1.67;;;;;;;;;;5051029;28;20239;-63
2022/05/22 08:30:21;;;;;;;7.35;1.88;;;;;;;;;;5050317;28;20223;-63
2022/05/22 08:32:47;;;;;;;8.80;2.00;;;;;;;;;;5049700;28;20212;-62
2022/05/22 08:35:12;;;;;;;7.78;2.20;;;;;;;;;;5049484;28;20562;-61
2022/05/22 08:37:38;;;;;;;7.47;1.90;;;;;;;;;;5050240;28;20694;-60
2022/05/22 08:40:04;;;;;;;6.03;1.50;;;;;;;;;;5049686;28;20215;-63
2022/05/22 08:42:35;;;;;;;7.53;1.80;;;;;;;;;;5050949;28;20678;-62
2022/05/22 08:45:01;;;;;;;7.03;1.80;;;;;;;;;;5037460;28;20207;-61
2022/05/22 08:47:28;;;;;;;5.97;2.28;;;;;;;;;;5049371;28;20211;-62
2022/05/22 08:49:55;;;;;;;6.00;1.30;;;;;;;;;;5050468;28;20689;-61
2022/05/22 08:52:32;;;;;;;7.10;1.83;;;;;;;;;;5031527;28;20306;-61
2022/05/22 08:55:00;;;;;;;6.18;1.70;;;;;;;;;;5050476;28;20294;-61
2022/05/22 09:00:11;;;;;;;5.03;1.77;;;;;;;;;;5037489;28;20688;-65
2022/05/22 09:02:41;;;;;;;8.45;1.60;;;;;;;;;;5036206;28;20215;-68
2022/05/22 09:05:08;;;;;;;6.70;1.88;;;;;;;;;;5053155;28;20717;-69
2022/05/22 09:07:39;;;;;;;6.20;1.60;;;;;;;;;;5053547;28;20698;-70
2022/05/22 09:10:06;;;;;;;7.03;1.73;;;;;;;;;;5053666;28;20218;-70
2022/05/22 09:12:38;;;;;;;3.88;1.20;;;;;;;;;;5052803;28;20242;-68
2022/05/22 09:15:14;;;;;;;4.63;1.50;;;;;;;;;;5040136;28;20295;-68
2022/05/22 09:17:41;;;;;;;8.88;2.08;;;;;;;;;;5045647;28;20260;-70
2022/05/22 09:20:13;;;;;;;5.65;1.40;;;;;;;;;;5053594;28;20290;-68
2022/05/22 09:22:46;;;;;;;5.50;2.35;;;;;;;;;;5035484;28;20215;-71
2022/05/22 09:25:20;;;;;;;7.97;2.20;;;;;;;;;;5034949;28;20709;-69
2022/05/22 09:27:51;;;;;;;6.15;1.67;;;;;;;;;;5035296;28;20215;-69
2022/05/22 09:30:29;;;;;;;4.90;1.50;;;;;;;;;;5053209;28;20268;-69
2022/05/22 09:33:03;;;;;;;6.47;1.90;;;;;;;;;;5024090;28;20226;-70
2022/05/22 09:35:29;;;;;;;10.05;1.50;;;;;;;;;;5009848;28;20578;-69
2022/05/22 09:38:01;;;;;;;5.38;1.40;;;;;;;;;;5052366;28;20833;-70
2022/05/22 09:40:29;;;;;;;5.80;1.60;;;;;;;;;;5042293;28;20624;-68
2022/05/22 09:43:00;;;;;;;6.63;1.60;;;;;;;;;;5046868;28;20211;-69
2022/05/22 09:45:44;;;;;;;5.03;1.50;;;;;;;;;;5051936;28;20231;-71
2022/05/22 09:48:18;;;;;;;5.07;1.60;;;;;;;;;;5032924;28;20637;-67
2022/05/22 09:50:47;;;;;;;6.63;1.60;;;;;;;;;;5022497;28;20216;-70
2022/05/22 09:53:16;;;;;;;6.72;1.30;;;;;;;;;;5048806;28;20229;-69
2022/05/22 09:55:42;;;;;;;4.47;1.20;;;;;;;;;;5060533;28;20627;-70
2022/05/22 09:58:11;;;;;;;3.90;1.10;;;;;;;;;;5049846;28;20226;-72
2022/05/22 10:00:47;;;;;;;4.57;1.35;;;;;;;;;;5041416;28;20246;-69
2022/05/22 10:03:15;;;;;;;4.82;1.15;;;;;;;;;;5060945;28;20689;-69
2022/05/22 10:05:44;;;;;;;5.32;1.40;;;;;;;;;;5048997;28;20657;-70
2022/05/22 10:08:10;;;;;;;3.97;1.08;;;;;;;;;;5058675;28;20215;-70
2022/05/22 10:10:39;;;;;;;6.53;1.38;;;;;;;;;;5049179;28;20219;-73
2022/05/22 10:13:08;;;;;;;5.75;1.42;;;;;;;;;;5030376;28;20207;-70
2022/05/22 10:15:46;;;;;;;5.32;1.08;;;;;;;;;;5066805;28;20226;-72
2022/05/22 10:18:16;;;;;;;7.47;1.42;;;;;;;;;;5037847;28;20349;-70
2022/05/22 10:21:00;;;;;;;6.47;1.40;;;;;;;;;;5045533;28;20215;-69
2022/05/22 10:23:37;;;;;;;6.38;1.13;;;;;;;;;;5038966;28;20249;-71
2022/05/22 10:26:06;;;;;;;4.85;1.10;;;;;;;;;;5042795;28;20317;-69
2022/05/22 10:28:36;;;;;;;6.65;1.58;;;;;;;;;;5022271;28;20222;-71
2022/05/22 10:31:08;;;;;;;4.30;1.05;;;;;;;;;;5031146;28;20215;-67
2022/05/22 10:33:52;;;;;;;4.13;1.20;;;;;;;;;;5032479;28;20211;-71
2022/05/22 10:36:20;;;;;;;5.32;1.20;;;;;;;;;;5051866;28;20233;-71
2022/05/22 10:39:00;;;;;;;4.70;1.20;;;;;;;;;;5051150;28;20284;-71
2022/05/22 10:44:18;;;;;;;6.05;1.10;;;;;;;;;;5051644;28;20640;-72
2022/05/22 10:46:48;;;;;;;7.25;1.20;;;;;;;;;;5033873;28;20246;-71
2022/05/22 10:49:13;;;;;;;4.95;0.95;;;;;;;;;;5050630;28;20678;-69
2022/05/22 10:51:38;;;;;;;4.47;1.02;;;;;;;;;;5052305;28;20248;-71
2022/05/22 10:54:04;;;;;;;4.38;1.10;;;;;;;;;;5051078;28;20295;-71
2022/05/22 10:56:30;;;;;;;7.05;1.63;;;;;;;;;;5034016;28;20219;-73
2022/05/22 10:58:57;;;;;;;6.03;1.30;;;;;;;;;;5050573;28;20211;-73
2022/05/22 11:01:24;;;;;;;4.95;1.20;;;;;;;;;;5051407;28;20749;-72
2022/05/22 11:03:59;;;;;;;5.70;1.15;;;;;;;;;;5051185;28;20262;-73
2022/05/22 11:06:25;;;;;;;4.60;1.13;;;;;;;;;;5050648;28;20211;-71
2022/05/22 11:08:51;;;;;;;5.53;1.15;;;;;;;;;;5045641;28;20207;-70
2022/05/22 11:11:19;;;;;;;5.38;1.27;;;;;;;;;;5051650;28;20702;-74
2022/05/22 11:13:45;;;;;;;4.68;1.05;;;;;;;;;;5032661;28;20218;-72
2022/05/22 11:16:13;;;;;;;5.43;1.15;;;;;;;;;;5051037;28;20223;-75
2022/05/22 11:18:38;;;;;;;4.43;1.08;;;;;;;;;;5051141;28;20239;-75
2022/05/22 11:21:07;;;;;;;3.72;1.08;;;;;;;;;;5049858;28;20235;-68
2022/05/22 11:23:39;;;;;;;4.70;1.33;;;;;;;;;;5034064;28;20688;-70
2022/05/22 11:26:09;;;;;;;5.30;1.55;;;;;;;;;;5033154;28;20652;-73
2022/05/22 11:28:42;;;;;;;4.43;1.20;;;;;;;;;;5032393;28;20225;-77
2022/05/22 11:31:10;;;;;;;4.90;1.23;;;;;;;;;;5050600;28;20211;-73
2022/05/22 11:33:37;;;;;;;5.15;1.20;;;;;;;;;;5047908;28;20219;-75
2022/05/22 11:36:18;;;;;;;6.53;1.38;;;;;;;;;;5046483;28;20299;-73
2022/05/22 11:38:46;;;;;;;3.60;1.20;;;;;;;;;;5033037;28;20227;-71
2022/05/22 11:41:11;;;;;;;5.03;1.25;;;;;;;;;;5032022;28;20215;-71
2022/05/22 11:43:44;;;;;;;4.88;1.35;;;;;;;;;;5042192;28;20709;-69
2022/05/22 11:46:11;;;;;;;4.15;1.42;;;;;;;;;;5042448;28;20297;-77
2022/05/22 11:48:44;;;;;;;4.75;1.35;;;;;;;;;;5053739;28;20630;-74
2022/05/22 11:51:18;;;;;;;4.53;1.50;;;;;;;;;;5050592;28;20257;-81
2022/05/22 11:53:48;;;;;;;7.32;1.95;;;;;;;;;;5033247;28;20272;-76
2022/05/22 11:56:17;;;;;;;7.32;2.13;;;;;;;;;;5049996;28;20310;-76
2022/05/22 11:59:01;;;;;;;5.78;1.67;;;;;;;;;;5050978;28;20223;-75
2022/05/22 12:01:27;;;;;;;5.35;1.60;;;;;;;;;;5050965;28;20278;-73
2022/05/22 12:03:52;;;;;;;6.55;1.98;;;;;;;;;;5032170;28;20254;-73
2022/05/22 12:06:19;;;;;;;6.60;1.85;;;;;;;;;;5032506;28;20732;-77
2022/05/22 12:08:56;;;;;;;6.32;1.85;;;;;;;;;;5052676;28;20310;-75
2022/05/22 12:11:21;;;;;;;5.75;1.75;;;;;;;;;;5026073;28;20409;-76
2022/05/22 12:13:49;;;;;;;4.78;1.58;;;;;;;;;;5041972;28;20294;-70
2022/05/22 12:16:17;;;;;;;5.97;1.83;;;;;;;;;;5018211;28;20269;-74
2022/05/22 12:18:45;;;;;;;6.75;1.88;;;;;;;;;;5040238;28;20690;-74
2022/05/22 12:21:14;;;;;;;4.47;1.55;;;;;;;;;;5049900;28;20219;-74
2022/05/22 12:23:44;;;;;;;5.00;1.50;;;;;;;;;;5032567;28;20211;-75
2022/05/22 12:26:10;;;;;;;4.30;1.23;;;;;;;;;;5032790;28;20210;-70
2022/05/22 12:28:36;;;;;;;7.85;1.80;;;;;;;;;;5050560;28;20729;-79
2022/05/22 12:31:01;;;;;;;6.00;1.38;;;;;;;;;;5049636;28;20218;-79
2022/05/22 12:33:27;;;;;;;4.97;1.30;;;;;;;;;;5052893;28;20199;-80
2022/05/22 12:35:52;;;;;;;4.07;1.17;;;;;;;;;;5036741;28;20237;-77
2022/05/22 12:38:18;;;;;;;5.40;1.35;;;;;;;;;;5035161;28;20205;-81
2022/05/22 12:40:49;;;;;;;5.40;1.63;;;;;;;;;;5055005;28;20215;-77
2022/05/22 12:43:16;;;;;;;6.25;1.60;;;;;;;;;;5030632;28;20294;-78
2022/05/22 12:45:41;;;;;;;4.13;1.23;;;;;;;;;;5049206;28;20631;-78
2022/05/22 12:48:09;;;;;;;5.75;1.17;;;;;;;;;;5035924;28;20291;-76
2022/05/22 12:50:35;;;;;;;4.63;1.48;;;;;;;;;;5036521;28;20302;-78
2022/05/22 12:53:01;;;;;;;4.55;1.30;;;;;;;;;;5053238;28;20731;-73
2022/05/22 12:55:32;;;;;;;4.72;1.23;;;;;;;;;;5037021;28;20215;-79
2022/05/22 12:57:58;;;;;;;4.43;1.15;;;;;;;;;;5054053;28;20639;-82
2022/05/22 13:00:31;;;;;;;3.80;1.00;;;;;;;;;;5034883;28;20678;-83
2022/05/22 13:03:06;;;;;;;3.85;1.15;;;;;;;;;;5054294;28;20298;-78
2022/05/22 13:05:32;;;;;;;2.90;0.95;;;;;;;;;;5053398;28;20229;-77
2022/05/22 13:07:58;;;;;;;5.75;1.73;;;;;;;;;;5036080;28;20649;-79
2022/05/22 13:10:23;;;;;;;5.70;1.60;;;;;;;;;;5035910;28;20333;-80
2022/05/22 13:12:53;;;;;;;4.70;1.65;;;;;;;;;;5053643;28;20226;-78
2022/05/22 13:15:18;;;;;;;7.10;1.60;;;;;;;;;;5053522;28;20215;-77
2022/05/22 13:17:53;;;;;;;7.28;1.40;;;;;;;;;;5036480;28;20253;-77
2022/05/22 13:20:28;;;;;;;7.60;2.30;;;;;;;;;;5035927;28;20210;-78
2022/05/22 13:23:02;;;;;;;5.95;2.10;;;;;;;;;;5036232;28;20210;-82
2022/05/22 13:25:29;;;;;;;5.55;2.15;;;;;;;;;;5053611;28;20233;-79
2022/05/22 13:27:55;;;;;;;7.03;1.92;;;;;;;;;;5034857;28;20218;-81
2022/05/22 13:30:26;;;;;;;8.27;2.35;;;;;;;;;;5035536;28;20317;-81
2022/05/22 13:33:04;;;;;;;5.03;1.92;;;;;;;;;;5053919;28;20203;-82
2022/05/22 13:35:32;;;;;;;4.88;1.80;;;;;;;;;;5052892;28;20669;-71
2022/05/22 13:37:57;;;;;;;4.93;1.70;;;;;;;;;;5052932;28;20668;-78
2022/05/22 13:40:25;;;;;;;3.72;1.33;;;;;;;;;;5053003;28;20242;-74
2022/05/22 13:43:10;;;;;;;6.32;1.83;;;;;;;;;;5031998;28;20212;-73
2022/05/22 13:45:47;;;;;;;6.13;1.63;;;;;;;;;;5052368;28;20216;-73
2022/05/22 13:48:26;;;;;;;7.10;1.98;;;;;;;;;;5033823;28;20666;-72
2022/05/22 13:53:50;;;;;;;5.90;2.25;;;;;;;;;;5026909;28;20218;-74
2022/05/22 13:56:21;;;;;;;8.73;2.75;;;;;;;;;;5052296;28;20275;-74
2022/05/22 13:58:46;;;;;;;6.25;2.30;;;;;;;;;;5035050;28;20223;-77
2022/05/22 14:01:13;;;;;;;5.80;2.17;;;;;;;;;;5052576;28;20211;-71
2022/05/22 14:03:41;;;;;;;9.70;2.40;;;;;;;;;;5034362;28;20321;-72
2022/05/22 14:06:06;;;;;;;6.45;1.95;;;;;;;;;;5052893;28;20218;-71
2022/05/22 14:08:34;;;;;;;6.88;1.85;;;;;;;;;;5034835;28;20287;-72
2022/05/22 14:11:01;;;;;;;5.43;2.08;;;;;;;;;;5034947;28;20211;-75
2022/05/22 14:13:26;;;;;;;5.57;1.98;;;;;;;;;;5052589;28;20249;-71
2022/05/22 14:15:54;;;;;;;5.35;1.70;;;;;;;;;;5034356;28;20215;-73
2022/05/22 14:18:20;;;;;;;7.18;2.08;;;;;;;;;;5051781;28;20221;-74
2022/05/22 14:20:46;;;;;;;6.15;1.80;;;;;;;;;;5052983;28;20683;-73
2022/05/22 14:23:12;;;;;;;6.00;2.10;;;;;;;;;;5051563;28;20223;-73
2022/05/22 14:25:39;;;;;;;5.85;1.90;;;;;;;;;;5052801;28;20211;-72
2022/05/22 14:28:04;;;;;;;4.88;1.90;;;;;;;;;;5034270;28;20206;-71
2022/05/22 14:30:30;;;;;;;7.07;2.20;;;;;;;;;;5033956;28;20203;-72
2022/05/22 14:32:57;;;;;;;5.90;2.53;;;;;;;;;;5052535;28;20748;-71
2022/05/22 14:35:35;;;;;;;5.63;2.17;;;;;;;;;;5052354;28;20219;-70
2022/05/22 14:38:12;;;;;;;7.28;2.25;;;;;;;;;;5051419;28;20669;-71
2022/05/22 14:40:45;;;;;;;7.82;2.05;;;;;;;;;;5051950;28;20619;-72
2022/05/22 14:43:11;;;;;;;7.35;2.47;;;;;;;;;;5046298;28;20550;-71
2022/05/22 14:45:38;;;;;;;7.20;2.10;;;;;;;;;;5032978;28;20273;-72
2022/05/22 14:48:10;;;;;;;6.18;2.15;;;;;;;;;;5052003;28;20238;-71
2022/05/22 14:50:36;;;;;;;4.95;2.17;;;;;;;;;;5055872;28;20219;-71
2022/05/22 14:53:02;;;;;;;5.13;1.85;;;;;;;;;;5050766;28;20682;-71
2022/05/22 14:55:35;;;;;;;7.22;2.05;;;;;;;;;;5034297;28;20211;-71